Asheville Regional Airport
KAVL : now visible

Airfield :











YOU CAN JOIN US ON...

 
LOGIN :

Register | Disclaimer

   EN    FR    IT 

 









Legend :    VFR   Marginal VFR   IFR   Intensive IFR   Very Intensive IFR
Visi :
Ceiling :
>= 8 km
>= 3000ft
5 to 8 km
1000 to 3000 ft
1500m to 5 km
500 to 1000 ft
800 to 1500m
200 to 500 ft
< 800m
< 200 ft
Symbols :   Thunderstorms  Fog  Heavy snow  Heavy precipitations  Wind > 20 kt






- Airport Elevation : 2165 ft
- IATA code : AVL


KAVL - Asheville Regional

CURRENT METAR :
  • 221154Z 00000KT 10SM BKN100 BKN120 07/04 A3006 RMK AO2 SLP172 T00720039 10083 20056 55003

EXPIRED METARs :
  • 221054Z AUTO 00000KT 10SM SCT095 07/03 A3006 RMK AO2 SLP171 T00670033
  • 220954Z AUTO 00000KT 10SM OVC080 06/03 A3007 RMK AO2 SLP174 T00610033

TAF KAVL
Valid from the 22 at 12:00 until the 23 at 12:00 UTC


221142Z 2212/2312 35004KT P6SM BKN080
FM221800 33007KT P6SM OVC050
FM230000 34005KT P6SM OVC030
FM230500 35004KT 6SM -SHRA BR OVC024
FM230900 13004KT 4SM -SHRA BR OVC013
FM231100 14005KT 3SM -SHRA BR OVC009



MET'MAP, your aeronautical weather chart ! - Copyright ORBIFLY December 2007 - Disclaimer

ORBIFLY MET'MAP TEAM :

Programming & Development : Alexandra Zaïnal
Concept & Development : Baudouin d'Aumeries
Co-Development & Prog : Marc-Olivier Méhu
Technical & hardware support : Manuel Goepfert

Contact : metmap@orbifly.com




SOURCES & CREDITS :

   NOAA       Earth
Advisory